sensor_id;sensor_type;location;lat;lon;timestamp;P1;P2;P0
31163;PMS5003;17796;49.296;-117.656;2022-09-01T00:09:27;8;7;
31163;PMS5003;17796;49.296;-117.656;2022-09-01T00:24:31;11;10;
31163;PMS5003;17796;49.296;-117.656;2022-09-01T00:39:34;12;10;
31163;PMS5003;17796;49.296;-117.656;2022-09-01T00:54:43;10;10;
31163;PMS5003;17796;49.296;-117.656;2022-09-01T01:09:47;13;9;
31163;PMS5003;17796;49.296;-117.656;2022-09-01T01:24:51;13;10;
31163;PMS5003;17796;49.296;-117.656;2022-09-01T01:39:55;11;9;
31163;PMS5003;17796;49.296;-117.656;2022-09-01T01:54:59;13;10;
31163;PMS5003;17796;49.296;-117.656;2022-09-01T02:10:03;11;10;
31163;PMS5003;17796;49.296;-117.656;2022-09-01T02:25:07;16;14;
31163;PMS5003;17796;49.296;-117.656;2022-09-01T02:40:11;10;10;
31163;PMS5003;17796;49.296;-117.656;2022-09-01T02:55:15;11;10;
31163;PMS5003;17796;49.296;-117.656;2022-09-01T03:10:19;11;9;
31163;PMS5003;17796;49.296;-117.656;2022-09-01T03:25:23;13;9;
31163;PMS5003;17796;49.296;-117.656;2022-09-01T03:40:30;13;12;
31163;PMS5003;17796;49.296;-117.656;2022-09-01T03:55:35;10;10;
31163;PMS5003;17796;49.296;-117.656;2022-09-01T04:10:45;10;10;
31163;PMS5003;17796;49.296;-117.656;2022-09-01T04:25:49;11;11;
31163;PMS5003;17796;49.296;-117.656;2022-09-01T04:40:53;13;13;
31163;PMS5003;17796;49.296;-117.656;2022-09-01T04:56:02;16;16;
31163;PMS5003;17796;49.296;-117.656;2022-09-01T05:11:06;14;13;
31163;PMS5003;17796;49.296;-117.656;2022-09-01T05:26:17;14;13;
31163;PMS5003;17796;49.296;-117.656;2022-09-01T05:41:21;13;13;
31163;PMS5003;17796;49.296;-117.656;2022-09-01T05:56:26;14;12;
31163;PMS5003;17796;49.296;-117.656;2022-09-01T06:11:31;12;12;
31163;PMS5003;17796;49.296;-117.656;2022-09-01T06:26:36;18;17;
31163;PMS5003;17796;49.296;-117.656;2022-09-01T06:41:40;15;12;
31163;PMS5003;17796;49.296;-117.656;2022-09-01T06:56:44;14;14;
31163;PMS5003;17796;49.296;-117.656;2022-09-01T07:11:47;15;15;
31163;PMS5003;17796;49.296;-117.656;2022-09-01T07:26:51;19;17;
31163;PMS5003;17796;49.296;-117.656;2022-09-01T07:41:55;21;20;
31163;PMS5003;17796;49.296;-117.656;2022-09-01T07:56:59;24;20;
31163;PMS5003;17796;49.296;-117.656;2022-09-01T08:12:04;21;18;
31163;PMS5003;17796;49.296;-117.656;2022-09-01T08:27:07;11;11;
31163;PMS5003;17796;49.296;-117.656;2022-09-01T08:42:18;19;18;
31163;PMS5003;17796;49.296;-117.656;2022-09-01T08:57:30;17;16;
31163;PMS5003;17796;49.296;-117.656;2022-09-01T09:12:44;15;14;
31163;PMS5003;17796;49.296;-117.656;2022-09-01T09:27:52;15;14;
31163;PMS5003;17796;49.296;-117.656;2022-09-01T09:43:05;19;17;
31163;PMS5003;17796;49.296;-117.656;2022-09-01T09:58:11;18;17;
31163;PMS5003;17796;49.296;-117.656;2022-09-01T10:13:18;25;22;
31163;PMS5003;17796;49.296;-117.656;2022-09-01T10:28:22;20;19;
31163;PMS5003;17796;49.296;-117.656;2022-09-01T10:43:34;17;17;
31163;PMS5003;17796;49.296;-117.656;2022-09-01T10:58:55;21;19;
31163;PMS5003;17796;49.296;-117.656;2022-09-01T11:14:02;17;15;
31163;PMS5003;17796;49.296;-117.656;2022-09-01T11:29:06;19;19;
31163;PMS5003;17796;49.296;-117.656;2022-09-01T11:44:14;16;16;
31163;PMS5003;17796;49.296;-117.656;2022-09-01T11:59:35;20;17;
31163;PMS5003;17796;49.296;-117.656;2022-09-01T12:14:39;21;18;
31163;PMS5003;17796;49.296;-117.656;2022-09-01T12:29:43;17;15;
31163;PMS5003;17796;49.296;-117.656;2022-09-01T12:44:50;16;16;
31163;PMS5003;17796;49.296;-117.656;2022-09-01T13:00:14;19;16;
31163;PMS5003;17796;49.296;-117.656;2022-09-01T13:15:18;20;17;
31163;PMS5003;17796;49.296;-117.656;2022-09-01T13:30:23;17;16;
31163;PMS5003;17796;49.296;-117.656;2022-09-01T13:45:27;21;17;
31163;PMS5003;17796;49.296;-117.656;2022-09-01T14:00:34;14;12;
31163;PMS5003;17796;49.296;-117.656;2022-09-01T14:15:39;16;16;
31163;PMS5003;17796;49.296;-117.656;2022-09-01T14:30:43;12;12;
31163;PMS5003;17796;49.296;-117.656;2022-09-01T14:45:47;15;15;
31163;PMS5003;17796;49.296;-117.656;2022-09-01T15:00:51;13;13;
31163;PMS5003;17796;49.296;-117.656;2022-09-01T15:15:55;16;15;
31163;PMS5003;17796;49.296;-117.656;2022-09-01T15:30:59;19;17;
31163;PMS5003;17796;49.296;-117.656;2022-09-01T15:46:04;13;13;
31163;PMS5003;17796;49.296;-117.656;2022-09-01T16:01:07;14;13;
31163;PMS5003;17796;49.296;-117.656;2022-09-01T16:16:24;15;14;
31163;PMS5003;17796;49.296;-117.656;2022-09-01T16:31:32;22;20;
31163;PMS5003;17796;49.296;-117.656;2022-09-01T16:46:40;14;14;
31163;PMS5003;17796;49.296;-117.656;2022-09-01T17:01:50;14;14;
31163;PMS5003;17796;49.296;-117.656;2022-09-01T17:17:04;15;14;
31163;PMS5003;17796;49.296;-117.656;2022-09-01T17:32:17;14;14;
31163;PMS5003;17796;49.296;-117.656;2022-09-01T17:47:30;16;14;
31163;PMS5003;17796;49.296;-117.656;2022-09-01T18:02:51;17;17;
31163;PMS5003;17796;49.296;-117.656;2022-09-01T18:18:07;18;15;
31163;PMS5003;17796;49.296;-117.656;2022-09-01T18:33:24;22;19;
31163;PMS5003;17796;49.296;-117.656;2022-09-01T18:48:42;19;19;
31163;PMS5003;17796;49.296;-117.656;2022-09-01T19:03:54;22;18;
31163;PMS5003;17796;49.296;-117.656;2022-09-01T19:19:05;19;19;
31163;PMS5003;17796;49.296;-117.656;2022-09-01T19:34:14;22;19;
31163;PMS5003;17796;49.296;-117.656;2022-09-01T19:49:27;21;18;
31163;PMS5003;17796;49.296;-117.656;2022-09-01T20:04:40;33;30;
31163;PMS5003;17796;49.296;-117.656;2022-09-01T20:19:50;25;21;
31163;PMS5003;17796;49.296;-117.656;2022-09-01T20:35:02;22;17;
31163;PMS5003;17796;49.296;-117.656;2022-09-01T20:50:12;24;22;
31163;PMS5003;17796;49.296;-117.656;2022-09-01T21:05:25;18;15;
31163;PMS5003;17796;49.296;-117.656;2022-09-01T21:20:43;21;21;
31163;PMS5003;17796;49.296;-117.656;2022-09-01T21:35:48;16;16;
31163;PMS5003;17796;49.296;-117.656;2022-09-01T21:50:52;24;20;
31163;PMS5003;17796;49.296;-117.656;2022-09-01T22:05:55;21;20;
31163;PMS5003;17796;49.296;-117.656;2022-09-01T22:21:03;19;18;
31163;PMS5003;17796;49.296;-117.656;2022-09-01T22:36:07;18;17;
31163;PMS5003;17796;49.296;-117.656;2022-09-01T22:51:12;21;17;
31163;PMS5003;17796;49.296;-117.656;2022-09-01T23:06:20;25;20;
31163;PMS5003;17796;49.296;-117.656;2022-09-01T23:21:26;19;16;
31163;PMS5003;17796;49.296;-117.656;2022-09-01T23:36:30;22;19;
31163;PMS5003;17796;49.296;-117.656;2022-09-01T23:51:35;18;16;
